Airport View

Enter AWOS ICAO identifier for current METAR.

ex. KFNL

KJTC 251015Z AUTO 23020G28KT 10SM CLR 15/M07 A3003 RMK AO2

25 Oct 2020 10:40

Frequency: 119.65

Phone: 928-333-5716

Other Area AWOS: KSJN - KSOW - KTYL - KSAD

TAF KGUP 250531Z 2506/2606 22011KT P6SM FEW120 BKN200 FM251800 23029G41KT P6SM BKN120 OVC200 FM260200 24022G32KT P6SM OVC090